Apodi, Brazil

6:15 PM BRT on July 30, 2014 (GMT -0300)
Dix Sept Rosado (SBMS) Elev 75 ft | 5.20 °S, 37.36 °W | Change Station

Current weather conditions updated 1 hour ago

Partly Cloudy
Partly Cloudy
86 °F
Feels Like 90 °F
N
14
Wind Variable Wind from NE

Tomorrow is forecast to be nearly the same temperature as today.

Today
High -- | Low -- °F
--% Chance of Precip.
Yesterday
High -- | Low -- °F
Precip. -- in
5:41 AM 5:33 PM
Waxing Crescent, 13% visible
Pressure 29.92 in
Visibility 6.2 miles
Clouds Few 3000 ft
Heat Index 90 °F
Dew Point 70 °F
Humidity 58%
Rainfall 0.00 in
Snow Depth Not available.
UV 0 out of 12
Pollen Not available.
Air Quality Not available.
Flu Activity Not available.
METAR SBMS 302000Z 04012KT 9999 FEW030 30/21 Q1013

More Conditions Fewer Conditions

Pressure 29.92 in
Visibility 6.2 miles
Clouds Few 3000 ft
Heat Index 90 °F
Dew Point 70 °F
Humidity 58%
Rainfall 0.00 in
Snow Depth Not available.
UV 0 out of 12
Pollen Not available.
Air Quality Not available.
Flu Activity Not available.
METAR SBMS 302000Z 04012KT 9999 FEW030 30/21 Q1013

More Conditions Fewer Conditions

10-Day Weather Forecast

Almanac

Astronomy

Jul. 30, 2014 Rise Set
Actual Time 5:41 AM BRT 5:33 PM BRT
Civil Twilight 5:19 AM BRT 5:55 PM BRT
Nautical Twilight 4:54 AM BRT 6:20 PM BRT
Astronomical Twilight 4:29 AM BRT 6:46 PM BRT
Moon 8:02 AM BRT 8:21 PM BRT
Length of Visible Light 12h 35m
Length of Day
11h 51m
Tomorrow will be 0m 12s longer.
Waxing Crescent, 13% of the Moon is Illuminated
Today
Waxing Crescent
Aug 3
First Quarter
Aug 10
Full
Aug 17
Last Quarter
Aug 25
New

Today's Extremes

Country Highs Country Lows

Community

WunderPhotos

Upload Photos

1,739,178 photos uploaded!

WunderBlogs® & News

By Dr. Jeff Masters
Director of Meteorology, Weather Underground
By Kari Strenfel
Meteorologist, Weather Underground
By Christopher C. Burt
Weather Historian, Weather Underground
July 30, 2014
July 30, 2014
July 30, 2014

Nearby

Snow Depth

Not available.

Earthquake Activity

City Distance Mag. Time & Date
No recent earthquake activity has been reported nearby.
Minimum magnitude displayed is 2.5.

Coastal Water Temperatures

Place Temperature
No Stations Reporting

Nearby Weather Stations

There are no personal weather stations in this area.